Sable: Past 24 Hour Conditions

 

Banquereau - 44139

06:00 PM ADT 01 September 2014Buoy position: 44.27N 57.08W
This table is a summary of hourly weather conditions for the past 24 hours.
Date / Time
(ADT)
Wind(knots) Wave height(m) Wave period(s) Pressure(kPa) Air tempC) Water tempC)
01 September 2014
18:00 WSW 6 gust 8 1.7 7.0 101.5 20 19
17:00 SW 10 gust 12 1.8 7.0 101.4 20 19
16:00 SW 10 gust 12 1.9 8.0 101.4 20 19
15:00 WSW 12 gust 14 1.9 8.0 101.5 20 19
14:00 WSW 16 gust 18 2.0 8.0 101.5 20 19
13:00 SW 14 gust 18 2.0 8.0 101.5 20 19
12:00 SW 12 gust 16 2.1 7.0 101.6 20 19
11:00 WSW 10 gust 14 2.3 8.0 101.6 20 19
10:00 WSW 14 gust 16 2.3 7.0 101.7 20 19
9:00 WSW 16 gust 18 2.4 7.0 101.7 20 19
8:00 SW 19 gust 21 2.5 7.0 101.6 21 19
7:00 SW 21 gust 25 2.5 7.0 101.6 21 19
6:00 SW 21 gust 27 2.4 7.0 101.6 21 19
5:00 SW 21 gust 25 2.3 6.0 101.6 21 19
4:00 SW 19 gust 23 2.1 7.0 101.6 21 20
3:00 SW 19 gust 23 1.9 7.0 101.6 21 20
2:00 SW 19 gust 23 2.0 8.0 101.7 21 20
1:00 SW 19 gust 21 1.9 7.0 101.8 21 20
0:00 SW 16 gust 19 2.0 7.0 101.8 21 20
31 August 2014
23:00 SW 16 gust 19 2.0 7.0 101.9 21 20
22:00 SSW 18 gust 19 1.9 8.0 101.9 21 20
21:00 SSW 18 gust 21 2.0 6.0 101.9 20 20
20:00 SW 19 gust 25 2.0 7.0 102.0 20 20
19:00 SSW 18 gust 21 1.9 5.0 102.0 20 20
18:00 SSW 19 gust 23 1.9 8.0 102.0 20 20
 
Map of Atlantic - Newfoundland marine weather areas Southwestern Grand Banks - 44138 Banquereau - 44139 Tail of the Bank - 44140 Nickerson Bank - 44251 Northeast Burgeo Bank - 44255 Blanc-Sablon Airport Cap Whittle Chevery Natashquan Airport Heath Point Miscou Island Grand Étang Ingonish Beach North Mountain St.Paul Island J.A. Douglas McCurdy Sydney Airport Charlottetown Airport East Point North Cape Argentia Bonavista Burgeo Cape Race Corner Brook Daniel's Harbour Englee Ferolle Point La Scie Port aux Basques Rocky Harbour Sagona Island St. Anthony Airport St. John's Int'l Airport St. Lawrence Stephenville Airport Twillingate Winterland Wreckhouse Cartwright Airport Mary's Harbour Grates Cove Pool's Island Marticot Island Long Pond Îles de la Madeleine Airport
Legend: buoyBuoy land stationLand Station